createdAt,value
2022-11-19T00:01:15.835Z,93315.81
2022-11-19T00:03:46.544Z,93330.47
2022-11-19T00:06:18.104Z,93333.81
2022-11-19T00:08:45.307Z,93326.53
2022-11-19T00:11:37.948Z,93331.44
2022-11-19T00:14:04.883Z,93323.19
2022-11-19T00:16:31.435Z,93321.94
2022-11-19T00:18:57.888Z,93330.94
2022-11-19T00:21:24.433Z,93328.66
2022-11-19T00:23:54.457Z,93326.06
2022-11-19T00:26:21.343Z,93313.41
2022-11-19T00:28:47.814Z,93307.28
2022-11-19T00:31:15.516Z,93308.06
2022-11-19T00:33:43.713Z,93303.72
2022-11-19T00:36:12.841Z,93300.16
2022-11-19T00:38:39.503Z,93293.53
2022-11-19T00:41:06.880Z,93287.13
2022-11-19T00:43:49.337Z,93297.38
2022-11-19T00:46:24.825Z,93295.09
2022-11-19T00:48:54.176Z,93298.22
2022-11-19T00:51:22.597Z,93287.69
2022-11-19T00:53:49.448Z,93291.06
2022-11-19T00:56:18.199Z,93304.97
2022-11-19T00:58:45.303Z,93302.13
2022-11-19T01:01:13.455Z,93300.31
2022-11-19T01:03:40.856Z,93298.22
2022-11-19T01:06:09.117Z,93304.63
2022-11-19T01:08:35.844Z,93310.03
2022-11-19T01:11:17.680Z,93312.78
2022-11-19T01:13:44.315Z,93309.94
2022-11-19T01:16:16.602Z,93307.63
2022-11-19T01:18:44.385Z,93316.84
2022-11-19T01:21:11.727Z,93325.84
2022-11-19T01:23:41.177Z,93326.63
2022-11-19T01:26:08.664Z,93320.13
2022-11-19T01:28:35.215Z,93310.56
2022-11-19T01:31:10.529Z,93323.09
2022-11-19T01:33:37.922Z,93323.59
2022-11-19T01:36:07.548Z,93327.72
2022-11-19T01:38:34.421Z,93321.50
2022-11-19T01:41:00.919Z,93330.50
2022-11-19T01:43:49.738Z,93328.97
2022-11-19T01:46:19.619Z,93336.25
2022-11-19T01:48:57.489Z,93324.38
2022-11-19T01:51:30.741Z,93317.66
2022-11-19T01:54:00.468Z,93320.25
2022-11-19T01:56:28.422Z,93318.53
2022-11-19T01:59:07.947Z,93321.16
2022-11-19T02:01:34.670Z,93327.66
2022-11-19T02:04:02.243Z,93316.06
2022-11-19T02:06:33.393Z,93321.81
2022-11-19T02:08:59.935Z,93330.06
2022-11-19T02:11:40.822Z,93333.69
2022-11-19T02:14:44.671Z,93328.50
2022-11-19T02:17:24.313Z,93322.31
2022-11-19T02:20:24.494Z,93325.38
2022-11-19T02:23:02.956Z,93326.16
2022-11-19T02:26:00.160Z,93328.72
2022-11-19T02:28:43.268Z,93324.81
2022-11-19T02:31:16.948Z,93333.34
2022-11-19T02:33:55.006Z,93330.47
2022-11-19T02:36:46.874Z,93329.97
2022-11-19T02:39:20.846Z,93334.09
2022-11-19T02:42:06.213Z,93329.00
2022-11-19T02:44:58.981Z,93337.81
2022-11-19T02:47:34.658Z,93338.38
2022-11-19T02:50:23.813Z,93337.88
2022-11-19T02:52:51.404Z,93337.31
2022-11-19T02:55:20.037Z,93339.16
2022-11-19T02:58:36.674Z,93343.25
2022-11-19T03:01:24.646Z,93343.03
2022-11-19T03:04:11.773Z,93343.63
2022-11-19T03:06:38.731Z,93339.00
2022-11-19T03:09:05.265Z,93344.19
2022-11-19T03:11:33.035Z,93347.03
2022-11-19T03:14:39.438Z,93356.03
2022-11-19T03:17:14.571Z,93357.56
2022-11-19T03:19:54.748Z,93354.69
2022-11-19T03:22:28.921Z,93366.09
2022-11-19T03:25:01.871Z,93360.63
2022-11-19T03:27:35.471Z,93348.19
2022-11-19T03:30:03.970Z,93353.88
2022-11-19T03:32:39.442Z,93365.25
2022-11-19T03:35:10.793Z,93363.16
2022-11-19T03:37:38.967Z,93361.63
2022-11-19T03:40:08.588Z,93370.97
2022-11-19T03:42:36.172Z,93373.09
2022-11-19T03:45:32.288Z,93373.09
2022-11-19T03:48:01.857Z,93371.53
2022-11-19T03:50:37.470Z,93376.16
2022-11-19T03:53:04.804Z,93371.53
2022-11-19T03:55:35.421Z,93383.34
2022-11-19T03:58:05.363Z,93379.72
2022-11-19T04:00:32.139Z,93385.38
2022-11-19T04:02:58.952Z,93380.97
2022-11-19T04:05:25.381Z,93378.09
2022-11-19T04:07:51.824Z,93380.41
2022-11-19T04:10:18.237Z,93372.38
2022-11-19T04:12:44.615Z,93375.72
2022-11-19T04:15:12.965Z,93382.72
2022-11-19T04:17:39.403Z,93380.41
2022-11-19T04:20:07.752Z,93379.34
2022-11-19T04:22:34.415Z,93376.06
2022-11-19T04:25:00.839Z,93380.69
2022-11-19T04:27:27.232Z,93384.03
2022-11-19T04:29:53.607Z,93372.94
2022-11-19T04:32:19.982Z,93381.94
2022-11-19T04:34:46.381Z,93380.13
2022-11-19T04:37:12.777Z,93377.53
2022-11-19T04:39:39.228Z,93379.88
2022-11-19T04:42:05.671Z,93379.00
2022-11-19T04:44:32.986Z,93383.63
2022-11-19T04:46:59.768Z,93381.53
2022-11-19T04:49:26.257Z,93389.00
2022-11-19T04:51:52.949Z,93392.56
2022-11-19T04:54:19.389Z,93385.50
2022-11-19T04:56:45.788Z,93382.66
2022-11-19T04:59:12.194Z,93385.97
2022-11-19T05:01:38.698Z,93385.50
2022-11-19T05:04:05.164Z,93389.69
2022-11-19T05:06:31.587Z,93387.69
2022-11-19T05:08:57.985Z,93386.44
2022-11-19T05:11:24.390Z,93384.88
2022-11-19T05:13:50.780Z,93391.59
2022-11-19T05:16:17.420Z,93380.47
2022-11-19T05:18:43.888Z,93386.69
2022-11-19T05:21:10.314Z,93383.31
2022-11-19T05:23:36.776Z,93382.78
2022-11-19T05:26:03.310Z,93386.63
2022-11-19T05:28:38.398Z,93389.19
2022-11-19T05:31:06.612Z,93384.59
2022-11-19T05:33:34.527Z,93387.94
2022-11-19T05:36:01.350Z,93381.25
2022-11-19T05:38:27.728Z,93384.09
2022-11-19T05:40:54.231Z,93382.16
2022-11-19T05:43:20.657Z,93391.16
2022-11-19T05:45:47.057Z,93391.47
2022-11-19T05:48:13.467Z,93392.00
2022-11-19T05:50:42.228Z,93389.66
2022-11-19T05:53:09.273Z,93392.97
2022-11-19T05:55:35.662Z,93393.47
2022-11-19T05:58:02.055Z,93400.16
2022-11-19T06:00:28.485Z,93385.72
2022-11-19T06:02:54.900Z,93394.22
2022-11-19T06:05:21.384Z,93393.47
2022-11-19T06:07:47.823Z,93391.94
2022-11-19T06:10:14.309Z,93385.22
2022-11-19T06:12:45.526Z,93389.84
2022-11-19T06:15:13.005Z,93396.56
2022-11-19T06:17:39.436Z,93389.06
2022-11-19T06:20:08.712Z,93394.81
2022-11-19T06:22:35.466Z,93404.94
2022-11-19T06:25:02.187Z,93399.84
2022-11-19T06:27:28.600Z,93406.25
2022-11-19T06:29:56.381Z,93407.03
2022-11-19T06:32:23.499Z,93412.47
2022-11-19T06:34:49.965Z,93404.50
2022-11-19T06:37:16.418Z,93412.00
2022-11-19T06:39:42.916Z,93413.03
2022-11-19T06:42:29.061Z,93408.16
2022-11-19T06:44:55.467Z,93414.09
2022-11-19T06:47:21.915Z,93411.78
2022-11-19T06:49:48.370Z,93421.25
2022-11-19T06:52:14.822Z,93421.56
2022-11-19T06:54:43.275Z,93424.13
2022-11-19T06:57:10.208Z,93426.72
2022-11-19T06:59:38.841Z,93423.09
2022-11-19T07:02:05.851Z,93431.34
2022-11-19T07:04:32.299Z,93429.22
2022-11-19T07:06:58.985Z,93428.97
2022-11-19T07:09:25.428Z,93432.31
2022-11-19T07:11:51.972Z,93435.41
2022-11-19T07:14:18.405Z,93430.22
2022-11-19T07:16:45.120Z,93437.44
2022-11-19T07:19:11.600Z,93445.19
2022-11-19T07:21:38.080Z,93443.84
2022-11-19T07:24:07.985Z,93446.16
2022-11-19T07:26:35.934Z,93452.31
2022-11-19T07:29:05.261Z,93454.59
2022-11-19T07:31:32.248Z,93455.38
2022-11-19T07:33:58.956Z,93455.38
2022-11-19T07:36:25.376Z,93452.50
2022-11-19T07:38:52.403Z,93450.19
2022-11-19T07:41:38.508Z,93454.25
2022-11-19T07:44:05.184Z,93456.28
2022-11-19T07:46:31.594Z,93446.13
2022-11-19T07:48:59.008Z,93452.56
2022-11-19T07:51:25.590Z,93459.28
2022-11-19T07:53:52.332Z,93455.66
2022-11-19T07:56:19.814Z,93470.81
2022-11-19T07:58:46.523Z,93466.63
2022-11-19T08:01:17.778Z,93463.19
2022-11-19T08:03:46.251Z,93465.78
2022-11-19T08:06:15.444Z,93469.13
2022-11-19T08:08:43.459Z,93473.06
2022-11-19T08:11:11.795Z,93466.84
2022-11-19T08:13:39.804Z,93475.09
2022-11-19T08:16:08.974Z,93474.78
2022-11-19T08:18:35.788Z,93478.16
2022-11-19T08:21:04.775Z,93481.50
2022-11-19T08:23:32.430Z,93476.34
2022-11-19T08:25:59.619Z,93484.88
2022-11-19T08:28:26.717Z,93481.50
2022-11-19T08:30:53.397Z,93478.44
2022-11-19T08:33:20.121Z,93487.47
2022-11-19T08:35:46.555Z,93487.47
2022-11-19T08:38:13.217Z,93484.09
2022-11-19T08:40:39.652Z,93482.69
2022-11-19T08:43:06.064Z,93483.94
2022-11-19T08:45:35.765Z,93483.13
2022-11-19T08:48:04.702Z,93492.81
2022-11-19T08:50:31.709Z,93485.47
2022-11-19T08:53:05.132Z,93484.81
2022-11-19T08:55:32.256Z,93492.72
2022-11-19T08:58:06.934Z,93497.31
2022-11-19T09:00:35.910Z,93492.63
2022-11-19T09:03:02.420Z,93501.00
2022-11-19T09:05:28.844Z,93509.28
2022-11-19T09:07:55.440Z,93501.44
2022-11-19T09:10:21.901Z,93509.97
2022-11-19T09:12:49.344Z,93509.00
2022-11-19T09:15:15.804Z,93507.53
2022-11-19T09:17:46.613Z,93510.69
2022-11-19T09:20:13.476Z,93507.63
2022-11-19T09:22:39.939Z,93507.25
2022-11-19T09:25:08.868Z,93515.34
2022-11-19T09:27:36.679Z,93512.56
2022-11-19T09:30:04.333Z,93522.44
2022-11-19T09:32:31.357Z,93519.94
2022-11-19T09:34:57.893Z,93518.75
2022-11-19T09:37:24.337Z,93527.78
2022-11-19T09:39:50.710Z,93534.00
2022-11-19T09:42:37.336Z,93535.03
2022-11-19T09:45:28.756Z,93537.63
2022-11-19T09:48:22.266Z,93537.72
2022-11-19T09:51:21.641Z,93542.97
2022-11-19T09:53:54.202Z,93544.59
2022-11-19T09:56:45.147Z,93542.81
2022-11-19T09:59:22.837Z,93547.16
2022-11-19T10:01:49.233Z,93550.50
2022-11-19T10:04:22.556Z,93542.47
2022-11-19T10:07:06.401Z,93548.13
2022-11-19T10:09:52.763Z,93546.66
2022-11-19T10:12:54.237Z,93544.50
2022-11-19T10:15:37.143Z,93545.69
2022-11-19T10:18:21.205Z,93542.53
2022-11-19T10:21:06.371Z,93541.75
2022-11-19T10:23:49.752Z,93540.22
2022-11-19T10:26:18.504Z,93546.53
2022-11-19T10:28:54.625Z,93533.09
2022-11-19T10:31:45.575Z,93534.38
2022-11-19T10:34:29.368Z,93531.19
2022-11-19T10:37:08.514Z,93523.38
2022-11-19T10:39:40.953Z,93529.56
2022-11-19T10:42:28.659Z,93534.41
2022-11-19T10:45:04.967Z,93524.31
2022-11-19T10:47:37.151Z,93528.53
2022-11-19T10:50:09.894Z,93519.31
2022-11-19T10:52:45.110Z,93530.56
2022-11-19T10:55:23.801Z,93530.75
2022-11-19T10:58:02.991Z,93511.63
2022-11-19T11:00:29.440Z,93521.28
2022-11-19T11:03:04.222Z,93524.00
2022-11-19T11:05:31.544Z,93523.41
2022-11-19T11:08:01.012Z,93522.53
2022-11-19T11:10:37.397Z,93508.44
2022-11-19T11:13:36.284Z,93498.72
2022-11-19T11:16:10.415Z,93499.66
2022-11-19T11:18:41.968Z,93492.94
2022-11-19T11:21:13.484Z,93495.13
2022-11-19T11:23:50.690Z,93499.44
2022-11-19T11:26:26.522Z,93489.75
2022-11-19T11:29:12.422Z,93493.78
2022-11-19T11:31:42.980Z,93488.94
2022-11-19T11:34:27.545Z,93491.66
2022-11-19T11:36:55.194Z,93485.09
2022-11-19T11:39:37.690Z,93492.31
2022-11-19T11:42:06.904Z,93491.16
2022-11-19T11:44:37.059Z,93496.59
2022-11-19T11:47:22.619Z,93496.34
2022-11-19T11:50:00.471Z,93496.16
2022-11-19T11:52:36.613Z,93494.25
2022-11-19T11:55:07.078Z,93508.50
2022-11-19T11:57:35.872Z,93505.28
2022-11-19T12:00:25.199Z,93488.19
2022-11-19T12:03:16.162Z,93495.13
2022-11-19T12:05:51.648Z,93493.22
2022-11-19T12:08:37.807Z,93500.88
2022-11-19T12:11:26.438Z,93499.75
2022-11-19T12:14:10.744Z,93498.78
2022-11-19T12:16:56.010Z,93493.38
2022-11-19T12:19:47.117Z,93491.66
2022-11-19T12:22:50.700Z,93501.06
2022-11-19T12:25:39.881Z,93501.06
2022-11-19T12:28:06.246Z,93496.84
2022-11-19T12:30:56.181Z,93496.28
2022-11-19T12:33:28.945Z,93499.56
2022-11-19T12:36:13.611Z,93496.09
2022-11-19T12:38:54.313Z,93496.09
2022-11-19T12:41:23.459Z,93495.59
2022-11-19T12:44:09.356Z,93520.50
2022-11-19T12:47:02.161Z,93507.53
2022-11-19T12:49:55.012Z,93507.44
2022-11-19T12:52:46.237Z,93503.09
2022-11-19T12:55:21.536Z,93495.78
2022-11-19T12:58:23.321Z,93491.72
2022-11-19T13:00:56.881Z,93486.34
2022-11-19T13:03:49.577Z,93476.09
2022-11-19T13:06:41.110Z,93481.28
2022-11-19T13:09:09.396Z,93480.06
2022-11-19T13:11:42.207Z,93490.63
2022-11-19T13:14:30.151Z,93486.25
2022-11-19T13:16:58.653Z,93486.53
2022-11-19T13:19:29.483Z,93492.66
2022-11-19T13:22:12.525Z,93495.22
2022-11-19T13:24:41.430Z,93496.63
2022-11-19T13:27:16.502Z,93505.09
2022-11-19T13:29:50.587Z,93514.31
2022-11-19T13:32:31.312Z,93509.53
2022-11-19T13:35:13.512Z,93512.88
2022-11-19T13:37:58.034Z,93505.88
2022-11-19T13:40:30.592Z,93505.97
2022-11-19T13:43:31.612Z,93506.28
2022-11-19T13:46:14.228Z,93496.59
2022-11-19T13:48:49.060Z,93489.94
2022-11-19T13:51:26.863Z,93493.13
2022-11-19T13:53:59.801Z,93490.63
2022-11-19T13:56:42.743Z,93497.44
2022-11-19T13:59:32.937Z,93493.88
2022-11-19T14:02:27.123Z,93500.22
2022-11-19T14:05:05.501Z,93502.22
2022-11-19T14:07:41.067Z,93504.78
2022-11-19T14:10:26.161Z,93504.69
2022-11-19T14:13:07.022Z,93493.22
2022-11-19T14:16:07.425Z,93496.97
2022-11-19T14:18:58.203Z,93490.25
2022-11-19T14:21:43.088Z,93498.22
2022-11-19T14:24:43.280Z,93500.72
2022-11-19T14:27:26.743Z,93505.59
2022-11-19T14:29:57.988Z,93501.56
2022-11-19T14:32:32.420Z,93504.78
2022-11-19T14:35:01.557Z,93504.09
2022-11-19T14:37:37.043Z,93505.72
2022-11-19T14:40:12.494Z,93509.38
2022-11-19T14:43:19.446Z,93512.72
2022-11-19T14:46:01.574Z,93506.00
2022-11-19T14:48:30.156Z,93513.59
2022-11-19T14:51:10.551Z,93509.22
2022-11-19T14:53:47.099Z,93504.13
2022-11-19T14:56:15.624Z,93510.94
2022-11-19T14:58:53.057Z,93502.97
2022-11-19T15:01:22.312Z,93506.13
2022-11-19T15:03:55.837Z,93511.00
2022-11-19T15:06:23.160Z,93506.41
2022-11-19T15:08:53.176Z,93505.63
2022-11-19T15:11:20.295Z,93514.16
2022-11-19T15:13:48.831Z,93508.22
2022-11-19T15:16:26.075Z,93503.31
2022-11-19T15:19:06.534Z,93506.19
2022-11-19T15:21:51.327Z,93505.91
2022-11-19T15:24:27.784Z,93500.72
2022-11-19T15:27:14.746Z,93494.50
2022-11-19T15:30:09.799Z,93504.09
2022-11-19T15:33:01.745Z,93504.84
2022-11-19T15:35:49.915Z,93519.34
2022-11-19T15:38:29.792Z,93514.44
2022-11-19T15:40:58.770Z,93515.47
2022-11-19T15:43:30.897Z,93519.59
2022-11-19T15:46:04.895Z,93520.38
2022-11-19T15:48:54.637Z,93520.94
2022-11-19T15:51:22.291Z,93527.66
2022-11-19T15:53:59.426Z,93512.69
2022-11-19T15:56:28.999Z,93519.38
2022-11-19T15:58:55.626Z,93515.00
2022-11-19T16:01:22.663Z,93505.41
2022-11-19T16:03:52.022Z,93506.47
2022-11-19T16:06:23.576Z,93512.69
2022-11-19T16:08:55.513Z,93521.94
2022-11-19T16:11:43.635Z,93523.44
2022-11-19T16:14:45.600Z,93519.53
2022-11-19T16:17:43.228Z,93526.25
2022-11-19T16:20:10.536Z,93522.63
2022-11-19T16:22:48.620Z,93523.09
2022-11-19T16:25:24.209Z,93533.16
2022-11-19T16:27:50.863Z,93528.75
2022-11-19T16:30:22.838Z,93528.00
2022-11-19T16:32:50.331Z,93533.47
2022-11-19T16:35:31.882Z,93537.09
2022-11-19T16:37:59.731Z,93537.47
2022-11-19T16:40:27.087Z,93533.41
2022-11-19T16:43:00.757Z,93542.97
2022-11-19T16:45:30.123Z,93539.47
2022-11-19T16:47:58.796Z,93545.97
2022-11-19T16:50:40.994Z,93551.69
2022-11-19T16:53:10.273Z,93545.56
2022-11-19T16:55:42.860Z,93550.50
2022-11-19T16:58:25.145Z,93554.13
2022-11-19T17:00:55.408Z,93553.16
2022-11-19T17:03:21.805Z,93551.41
2022-11-19T17:05:51.881Z,93556.38
2022-11-19T17:08:28.652Z,93559.72
2022-11-19T17:11:39.973Z,93558.66
2022-11-19T17:14:27.339Z,93565.09
2022-11-19T17:16:53.879Z,93555.81
2022-11-19T17:19:31.369Z,93560.69
2022-11-19T17:22:07.776Z,93570.00
2022-11-19T17:24:42.680Z,93569.72
2022-11-19T17:27:24.480Z,93563.03
2022-11-19T17:29:56.517Z,93568.03
2022-11-19T17:32:22.999Z,93574.19
2022-11-19T17:34:50.144Z,93582.94
2022-11-19T17:37:16.550Z,93586.78
2022-11-19T17:39:42.948Z,93575.19
2022-11-19T17:42:27.658Z,93590.16
2022-11-19T17:44:54.072Z,93594.25
2022-11-19T17:47:23.455Z,93587.00
2022-11-19T17:49:51.236Z,93585.94
2022-11-19T17:52:24.901Z,93580.00
2022-11-19T17:54:53.665Z,93582.88
2022-11-19T17:57:20.143Z,93592.44
2022-11-19T17:59:46.547Z,93587.56
2022-11-19T18:02:15.034Z,93583.16
2022-11-19T18:04:43.241Z,93583.66
2022-11-19T18:07:10.553Z,93579.25
2022-11-19T18:09:38.521Z,93582.03
2022-11-19T18:12:13.978Z,93584.34
2022-11-19T18:14:40.399Z,93588.47
2022-11-19T18:17:06.950Z,93587.97
2022-11-19T18:19:33.624Z,93597.84
2022-11-19T18:22:00.035Z,93596.28
2022-11-19T18:24:26.583Z,93587.00
2022-11-19T18:26:53.172Z,93597.34
2022-11-19T18:29:19.942Z,93594.75
2022-11-19T18:31:50.276Z,93595.50
2022-11-19T18:34:22.199Z,93588.59
2022-11-19T18:36:49.763Z,93593.75
2022-11-19T18:39:16.390Z,93600.50
2022-11-19T18:41:43.474Z,93595.31
2022-11-19T18:44:31.645Z,93596.63
2022-11-19T18:46:58.515Z,93594.06
2022-11-19T18:49:25.142Z,93603.13
2022-11-19T18:51:52.193Z,93601.28
2022-11-19T18:54:18.884Z,93599.25
2022-11-19T18:56:45.537Z,93601.09
2022-11-19T18:59:12.756Z,93603.41
2022-11-19T19:01:39.500Z,93603.69
2022-11-19T19:04:07.122Z,93605.75
2022-11-19T19:06:33.583Z,93617.66
2022-11-19T19:09:00.091Z,93613.25
2022-11-19T19:11:45.123Z,93613.50
2022-11-19T19:14:11.538Z,93613.56
2022-11-19T19:16:37.934Z,93625.47
2022-11-19T19:19:04.436Z,93622.41
2022-11-19T19:21:30.931Z,93620.06
2022-11-19T19:23:57.423Z,93612.84
2022-11-19T19:26:24.432Z,93621.88
2022-11-19T19:28:52.751Z,93630.69
2022-11-19T19:31:20.593Z,93627.34
2022-11-19T19:33:48.215Z,93623.50
2022-11-19T19:36:16.280Z,93634.31
2022-11-19T19:38:43.507Z,93632.75
2022-11-19T19:41:15.834Z,93625.63
2022-11-19T19:43:42.330Z,93634.38
2022-11-19T19:46:15.771Z,93633.59
2022-11-19T19:48:43.824Z,93636.97
2022-11-19T19:51:11.889Z,93636.66
2022-11-19T19:53:39.463Z,93639.00
2022-11-19T19:56:08.331Z,93639.78
2022-11-19T19:58:35.559Z,93639.78
2022-11-19T20:01:11.135Z,93640.53
2022-11-19T20:03:37.920Z,93639.00
2022-11-19T20:06:06.445Z,93645.97
2022-11-19T20:08:35.004Z,93654.50
2022-11-19T20:11:07.112Z,93650.38
2022-11-19T20:13:34.239Z,93659.94
2022-11-19T20:16:18.159Z,93655.53
2022-11-19T20:18:46.737Z,93651.47
2022-11-19T20:21:16.786Z,93660.28
2022-11-19T20:23:43.757Z,93669.34
2022-11-19T20:26:13.553Z,93671.41
2022-11-19T20:28:40.232Z,93671.41
2022-11-19T20:31:16.608Z,93672.25
2022-11-19T20:33:44.351Z,93669.25
2022-11-19T20:36:13.896Z,93680.16
2022-11-19T20:38:42.278Z,93676.28
2022-11-19T20:41:29.623Z,93676.31
2022-11-19T20:44:15.475Z,93678.97
2022-11-19T20:46:42.801Z,93667.16
2022-11-19T20:49:12.786Z,93684.00
2022-11-19T20:51:42.496Z,93683.03
2022-11-19T20:54:09.266Z,93674.28
2022-11-19T20:56:36.644Z,93676.88
2022-11-19T20:59:04.419Z,93676.34
2022-11-19T21:01:31.765Z,93681.50
2022-11-19T21:03:58.844Z,93676.34
2022-11-19T21:06:25.768Z,93673.78
2022-11-19T21:08:52.548Z,93682.03
2022-11-19T21:11:19.560Z,93674.78
2022-11-19T21:13:46.080Z,93667.56
2022-11-19T21:16:20.418Z,93676.31
2022-11-19T21:18:47.159Z,93667.25
2022-11-19T21:21:16.581Z,93677.03
2022-11-19T21:23:43.309Z,93676.50
2022-11-19T21:26:16.812Z,93677.78
2022-11-19T21:28:46.560Z,93667.47
2022-11-19T21:31:17.801Z,93663.34
2022-11-19T21:33:44.551Z,93655.31
2022-11-19T21:36:11.585Z,93648.38
2022-11-19T21:38:38.680Z,93660.22
2022-11-19T21:41:05.825Z,93654.53
2022-11-19T21:43:32.595Z,93653.47
2022-11-19T21:45:59.026Z,93649.06
2022-11-19T21:48:25.904Z,93654.47
2022-11-19T21:50:53.088Z,93649.84
2022-11-19T21:53:20.228Z,93665.84
2022-11-19T21:55:47.143Z,93654.47
2022-11-19T21:58:15.118Z,93648.31
2022-11-19T22:00:42.200Z,93660.44
2022-11-19T22:03:08.757Z,93651.38
2022-11-19T22:05:35.632Z,93657.03
2022-11-19T22:08:02.306Z,93656.25
2022-11-19T22:10:29.637Z,93660.09
2022-11-19T22:12:58.987Z,93659.31
2022-11-19T22:15:26.534Z,93666.81
2022-11-19T22:17:52.953Z,93660.88
2022-11-19T22:20:19.391Z,93662.13
2022-11-19T22:22:46.536Z,93660.34
2022-11-19T22:25:13.154Z,93657.47
2022-11-19T22:27:41.485Z,93660.56
2022-11-19T22:30:10.017Z,93663.41
2022-11-19T22:32:36.562Z,93663.16
2022-11-19T22:35:03.251Z,93665.75
2022-11-19T22:37:29.741Z,93659.28
2022-11-19T22:39:56.199Z,93656.69
2022-11-19T22:42:22.625Z,93654.41
2022-11-19T22:44:49.056Z,93656.44
2022-11-19T22:47:15.435Z,93656.44
2022-11-19T22:49:42.026Z,93651.28
2022-11-19T22:52:08.414Z,93655.41
2022-11-19T22:54:38.720Z,93655.41
2022-11-19T22:57:07.905Z,93658.72
2022-11-19T22:59:34.338Z,93650.25
2022-11-19T23:02:00.789Z,93661.13
2022-11-19T23:04:28.868Z,93660.06
2022-11-19T23:06:55.663Z,93664.19
2022-11-19T23:09:22.571Z,93656.69
2022-11-19T23:12:07.999Z,93657.75
2022-11-19T23:14:34.405Z,93654.41
2022-11-19T23:17:00.848Z,93662.69
2022-11-19T23:19:27.328Z,93658.00
2022-11-19T23:21:53.730Z,93651.84
2022-11-19T23:24:20.343Z,93644.66
2022-11-19T23:26:46.797Z,93648.00
2022-11-19T23:29:13.379Z,93645.97
2022-11-19T23:31:40.456Z,93644.69
2022-11-19T23:34:07.093Z,93632.84
2022-11-19T23:36:36.528Z,93641.03
2022-11-19T23:39:05.131Z,93643.13
2022-11-19T23:41:33.600Z,93645.22
2022-11-19T23:44:00.678Z,93640.59
2022-11-19T23:46:30.225Z,93639.03
2022-11-19T23:48:58.171Z,93643.72
2022-11-19T23:51:27.066Z,93649.41
2022-11-19T23:53:54.142Z,93645.81
2022-11-19T23:56:22.063Z,93648.38
2022-11-19T23:58:48.537Z,93640.41
